createdAt,value
2023-05-22T00:01:27.736Z,20.88
2023-05-22T00:03:55.067Z,18.17
2023-05-22T00:06:23.631Z,18.10
2023-05-22T00:08:50.827Z,18.67
2023-05-22T00:11:18.005Z,19.02
2023-05-22T00:13:45.071Z,21.77
2023-05-22T00:16:12.157Z,20.95
2023-05-22T00:18:42.442Z,16.70
2023-05-22T00:21:10.235Z,21.90
2023-05-22T00:23:37.328Z,20.77
2023-05-22T00:26:04.455Z,23.85
2023-05-22T00:28:31.636Z,21.17
2023-05-22T00:30:58.904Z,20.20
2023-05-22T00:33:26.000Z,22.40
2023-05-22T00:35:53.088Z,20.38
2023-05-22T00:38:33.941Z,24.73
2023-05-22T00:41:02.701Z,22.58
2023-05-22T00:43:30.045Z,25.25
2023-05-22T00:45:57.432Z,24.02
2023-05-22T00:48:26.357Z,22.77
2023-05-22T00:50:57.321Z,26.98
2023-05-22T00:53:26.129Z,23.27
2023-05-22T00:55:54.611Z,29.02
2023-05-22T00:58:23.886Z,23.17
2023-05-22T01:03:19.903Z,23.80
2023-05-22T01:05:47.215Z,26.15
2023-05-22T01:08:14.272Z,28.48
2023-05-22T01:10:41.885Z,28.25
2023-05-22T01:13:21.289Z,29.27
2023-05-22T01:16:19.014Z,29.83
2023-05-22T01:18:55.828Z,28.08
2023-05-22T01:21:37.351Z,22.48
2023-05-22T01:24:16.447Z,27.38
2023-05-22T01:27:03.987Z,22.42
2023-05-22T01:29:52.759Z,24.75
2023-05-22T01:32:23.319Z,24.20
2023-05-22T01:34:56.789Z,26.00
2023-05-22T01:37:25.025Z,23.90
2023-05-22T01:39:54.506Z,21.33
2023-05-22T01:42:21.961Z,25.75
2023-05-22T01:44:49.444Z,26.13
2023-05-22T01:47:18.171Z,22.40
2023-05-22T01:49:47.405Z,22.40
2023-05-22T01:52:44.201Z,20.83
2023-05-22T01:55:20.395Z,28.10
2023-05-22T01:58:03.116Z,22.15
2023-05-22T02:00:31.544Z,23.40
2023-05-22T02:03:05.649Z,18.38
2023-05-22T02:05:38.698Z,20.35
2023-05-22T02:08:07.105Z,23.17
2023-05-22T02:10:36.558Z,21.58
2023-05-22T02:13:04.494Z,19.58
2023-05-22T02:15:32.081Z,23.02
2023-05-22T02:18:02.037Z,15.88
2023-05-22T02:20:30.172Z,17.60
2023-05-22T02:22:58.167Z,18.10
2023-05-22T02:25:25.415Z,17.17
2023-05-22T02:27:52.522Z,20.95
2023-05-22T02:30:21.257Z,16.85
2023-05-22T02:32:51.494Z,17.88
2023-05-22T02:35:18.786Z,20.42
2023-05-22T02:37:46.376Z,19.58
2023-05-22T02:40:15.776Z,21.88
2023-05-22T02:42:43.103Z,18.23
2023-05-22T02:45:11.269Z,17.35
2023-05-22T02:47:38.444Z,17.67
2023-05-22T02:50:08.039Z,18.25
2023-05-22T02:52:37.240Z,21.05
2023-05-22T02:55:05.005Z,22.33
2023-05-22T02:57:33.694Z,21.15
2023-05-22T03:00:01.726Z,24.63
2023-05-22T03:02:33.268Z,21.55
2023-05-22T03:05:00.572Z,20.75
2023-05-22T03:07:29.704Z,21.50
2023-05-22T03:09:57.657Z,23.35
2023-05-22T03:12:24.765Z,24.92
2023-05-22T03:14:51.970Z,20.65
2023-05-22T03:17:19.256Z,24.00
2023-05-22T03:19:46.490Z,24.75
2023-05-22T03:22:13.559Z,25.33
2023-05-22T03:24:40.966Z,23.58
2023-05-22T03:27:08.299Z,25.88
2023-05-22T03:29:39.678Z,25.98
2023-05-22T03:32:06.982Z,23.65
2023-05-22T03:34:34.346Z,22.90
2023-05-22T03:37:02.557Z,24.38
2023-05-22T03:39:29.688Z,25.98
2023-05-22T03:42:01.827Z,29.55
2023-05-22T03:44:29.871Z,22.80
2023-05-22T03:46:57.280Z,31.00
2023-05-22T03:49:24.529Z,32.25
2023-05-22T03:51:51.772Z,23.45
2023-05-22T03:54:19.210Z,26.55
2023-05-22T03:56:46.397Z,25.00
2023-05-22T03:59:13.508Z,25.33
2023-05-22T04:01:40.608Z,23.45
2023-05-22T04:04:09.703Z,26.30
2023-05-22T04:06:43.384Z,26.27
2023-05-22T04:09:13.990Z,24.33
2023-05-22T04:11:42.470Z,28.75
2023-05-22T04:14:09.995Z,30.08
2023-05-22T04:16:37.164Z,24.45
2023-05-22T04:19:06.025Z,25.50
2023-05-22T04:21:36.205Z,24.90
2023-05-22T04:24:07.431Z,25.75
2023-05-22T04:26:36.251Z,24.98
2023-05-22T04:29:04.279Z,27.83
2023-05-22T04:31:31.399Z,23.77
2023-05-22T04:34:00.340Z,21.33
2023-05-22T04:36:28.079Z,17.67
2023-05-22T04:38:55.815Z,19.65
2023-05-22T04:41:26.839Z,21.58
2023-05-22T04:43:54.172Z,26.60
2023-05-22T04:46:21.554Z,21.40
2023-05-22T04:48:48.853Z,19.17
2023-05-22T04:51:16.573Z,27.85
2023-05-22T04:53:44.239Z,20.83
2023-05-22T04:56:14.625Z,19.70
2023-05-22T04:58:43.677Z,20.83
2023-05-22T05:01:11.302Z,23.00
2023-05-22T05:03:39.528Z,20.85
2023-05-22T05:06:08.463Z,23.02
2023-05-22T05:08:35.625Z,25.80
2023-05-22T05:11:02.801Z,25.15
2023-05-22T05:13:29.980Z,27.17
2023-05-22T05:15:59.706Z,28.08
2023-05-22T05:18:28.328Z,22.98
2023-05-22T05:20:55.461Z,28.80
2023-05-22T05:23:22.985Z,28.02
2023-05-22T05:25:50.157Z,25.52
2023-05-22T05:28:17.408Z,24.65
2023-05-22T05:30:45.084Z,23.42
2023-05-22T05:33:20.373Z,26.35
2023-05-22T05:36:07.109Z,33.95
2023-05-22T05:38:35.661Z,24.45
2023-05-22T05:41:03.008Z,34.20
2023-05-22T05:43:30.722Z,29.55
2023-05-22T05:46:03.752Z,28.48
2023-05-22T05:48:31.179Z,27.63
2023-05-22T05:50:59.060Z,25.80
2023-05-22T05:53:29.145Z,24.40
2023-05-22T05:55:58.927Z,25.60
2023-05-22T05:58:27.935Z,24.88
2023-05-22T06:01:13.586Z,24.85
2023-05-22T06:03:41.764Z,27.92
2023-05-22T06:06:15.492Z,26.90
2023-05-22T06:09:05.694Z,34.30
2023-05-22T06:11:37.293Z,41.78
2023-05-22T06:14:07.449Z,49.40
2023-05-22T06:16:34.752Z,86.60
2023-05-22T06:19:02.186Z,24.80
2023-05-22T06:21:29.387Z,46.70
2023-05-22T06:23:56.555Z,34.00
2023-05-22T06:26:26.057Z,25.70
2023-05-22T06:28:54.493Z,31.52
2023-05-22T06:33:52.180Z,26.98
2023-05-22T06:36:19.699Z,26.98
2023-05-22T06:38:47.296Z,25.33
2023-05-22T06:41:35.673Z,38.45
2023-05-22T06:44:03.409Z,32.92
2023-05-22T06:46:31.171Z,25.98
2023-05-22T06:49:02.707Z,31.45
2023-05-22T06:51:36.381Z,28.08
2023-05-22T06:54:08.326Z,24.55
2023-05-22T06:56:37.577Z,21.90
2023-05-22T06:59:11.511Z,21.20
2023-05-22T07:02:01.543Z,26.25
2023-05-22T07:04:47.089Z,23.75
2023-05-22T07:07:19.243Z,24.65
2023-05-22T07:09:46.839Z,20.38
2023-05-22T07:12:14.059Z,22.60
2023-05-22T07:14:41.280Z,22.70
2023-05-22T07:17:09.066Z,20.60
2023-05-22T07:19:41.581Z,18.98
2023-05-22T07:22:09.455Z,19.67
2023-05-22T07:24:39.226Z,21.33
2023-05-22T07:27:07.333Z,18.20
2023-05-22T07:29:34.569Z,21.73
2023-05-22T07:32:02.744Z,22.35
2023-05-22T07:34:34.515Z,20.88
2023-05-22T07:37:13.926Z,16.92
2023-05-22T07:39:42.605Z,20.17
2023-05-22T07:42:10.815Z,16.58
2023-05-22T07:44:46.723Z,17.58
2023-05-22T07:47:14.175Z,18.52
2023-05-22T07:49:42.367Z,17.95
2023-05-22T07:52:11.705Z,15.98
2023-05-22T07:54:39.890Z,16.17
2023-05-22T07:57:12.308Z,16.25
2023-05-22T07:59:40.413Z,16.45
2023-05-22T08:02:10.074Z,15.15
2023-05-22T08:04:56.678Z,17.25
2023-05-22T08:07:24.023Z,14.48
2023-05-22T08:09:51.367Z,15.40
2023-05-22T08:12:18.609Z,15.85
2023-05-22T08:14:45.955Z,14.75
2023-05-22T08:17:13.297Z,12.20
2023-05-22T08:19:40.577Z,12.68
2023-05-22T08:22:08.014Z,10.88
2023-05-22T08:24:35.117Z,11.05
2023-05-22T08:27:04.793Z,14.60
2023-05-22T08:29:31.861Z,12.27
2023-05-22T08:31:59.105Z,8.90
2023-05-22T08:34:26.629Z,11.57
2023-05-22T08:36:53.787Z,10.32
2023-05-22T08:39:20.975Z,13.82
2023-05-22T08:41:49.227Z,10.73
2023-05-22T08:44:16.540Z,19.83
2023-05-22T08:46:45.599Z,7.97
2023-05-22T08:49:13.707Z,8.40
2023-05-22T08:51:42.542Z,9.77
2023-05-22T08:54:12.973Z,8.43
2023-05-22T08:56:52.862Z,9.75
2023-05-22T08:59:24.020Z,9.98
2023-05-22T09:01:52.669Z,9.30
2023-05-22T09:04:23.814Z,12.10
2023-05-22T09:06:52.033Z,10.85
2023-05-22T09:09:19.232Z,9.43
2023-05-22T09:11:46.463Z,11.55
2023-05-22T09:14:13.716Z,13.05
2023-05-22T09:16:49.637Z,12.73
2023-05-22T09:19:17.026Z,12.65
2023-05-22T09:21:48.149Z,9.77
2023-05-22T09:24:15.427Z,10.85
2023-05-22T09:26:42.563Z,13.32
2023-05-22T09:29:10.139Z,10.90
2023-05-22T09:31:44.603Z,13.38
2023-05-22T09:34:17.875Z,11.45
2023-05-22T09:36:45.006Z,14.40
2023-05-22T09:39:12.464Z,14.40
2023-05-22T09:41:41.647Z,14.63
2023-05-22T09:44:16.568Z,17.75
2023-05-22T09:46:47.467Z,10.13
2023-05-22T09:49:16.781Z,10.77
2023-05-22T09:51:48.076Z,10.48
2023-05-22T09:54:17.927Z,9.57
2023-05-22T09:56:49.021Z,8.55
2023-05-22T09:59:26.971Z,7.78
2023-05-22T10:01:54.588Z,8.80
2023-05-22T10:04:23.293Z,7.93
2023-05-22T10:06:57.721Z,9.00
2023-05-22T10:09:31.092Z,9.68
2023-05-22T10:12:04.265Z,7.32
2023-05-22T10:14:32.146Z,10.05
2023-05-22T10:17:03.270Z,9.73
2023-05-22T10:19:32.981Z,9.10
2023-05-22T10:22:01.041Z,12.18
2023-05-22T10:24:29.578Z,10.60
2023-05-22T10:26:57.881Z,9.43
2023-05-22T10:29:31.320Z,12.63
2023-05-22T10:32:06.737Z,8.95
2023-05-22T10:35:09.007Z,10.13
2023-05-22T10:38:04.421Z,11.40
2023-05-22T10:40:43.288Z,12.45
2023-05-22T10:43:10.426Z,10.73
2023-05-22T10:45:37.648Z,13.20
2023-05-22T10:48:46.921Z,8.85
2023-05-22T10:51:13.135Z,11.48
2023-05-22T10:53:42.767Z,10.95
2023-05-22T10:56:14.433Z,10.13
2023-05-22T11:02:01.340Z,12.07
2023-05-22T11:04:29.271Z,11.85
2023-05-22T11:07:05.171Z,12.65
2023-05-22T11:09:33.285Z,13.10
2023-05-22T11:12:18.296Z,12.68
2023-05-22T11:14:56.854Z,10.05
2023-05-22T11:17:29.184Z,9.57
2023-05-22T11:20:08.500Z,10.73
2023-05-22T11:22:39.041Z,13.40
2023-05-22T11:25:11.737Z,9.32
2023-05-22T11:27:41.312Z,9.05
2023-05-22T11:30:12.843Z,10.98
2023-05-22T11:32:46.491Z,10.32
2023-05-22T11:35:18.782Z,10.50
2023-05-22T11:37:46.951Z,14.50
2023-05-22T11:40:22.257Z,10.98
2023-05-22T11:42:49.404Z,11.90
2023-05-22T11:45:17.982Z,15.70
2023-05-22T11:47:48.854Z,9.48
2023-05-22T11:50:29.219Z,12.00
2023-05-22T11:53:02.966Z,16.45
2023-05-22T11:55:32.411Z,11.63
2023-05-22T11:58:01.222Z,13.68
2023-05-22T12:00:29.487Z,8.27
2023-05-22T12:02:56.656Z,8.43
2023-05-22T12:05:23.816Z,14.80
2023-05-22T12:07:54.246Z,9.90
2023-05-22T12:10:21.448Z,9.52
2023-05-22T12:12:52.664Z,9.35
2023-05-22T12:15:22.952Z,8.55
2023-05-22T12:17:50.307Z,11.13
2023-05-22T12:20:17.497Z,10.50
2023-05-22T12:22:47.818Z,11.10
2023-05-22T12:25:17.305Z,9.85
2023-05-22T12:27:48.148Z,13.63
2023-05-22T12:30:16.217Z,15.38
2023-05-22T12:32:50.838Z,16.98
2023-05-22T12:35:19.267Z,15.07
2023-05-22T12:37:53.309Z,10.13
2023-05-22T12:40:20.593Z,9.15
2023-05-22T12:42:48.914Z,9.63
2023-05-22T12:45:18.088Z,10.73
2023-05-22T12:47:46.418Z,11.80
2023-05-22T12:50:13.985Z,11.73
2023-05-22T12:52:41.161Z,10.70
2023-05-22T12:55:10.816Z,18.67
2023-05-22T12:57:38.017Z,12.10
2023-05-22T13:00:06.135Z,11.77
2023-05-22T13:02:35.054Z,11.10
2023-05-22T13:05:02.303Z,8.63
2023-05-22T13:07:33.041Z,12.07
2023-05-22T13:10:00.154Z,9.93
2023-05-22T13:12:27.476Z,10.68
2023-05-22T13:14:54.593Z,10.57
2023-05-22T13:17:21.808Z,11.57
2023-05-22T13:19:49.161Z,15.88
2023-05-22T13:22:16.598Z,10.43
2023-05-22T13:24:44.064Z,11.90
2023-05-22T13:27:11.239Z,12.50
2023-05-22T13:32:06.787Z,12.98
2023-05-22T13:34:34.014Z,10.35
2023-05-22T13:37:01.370Z,11.65
2023-05-22T13:39:28.502Z,11.88
2023-05-22T13:41:55.677Z,11.38
2023-05-22T13:44:23.111Z,12.10
2023-05-22T13:46:50.721Z,11.48
2023-05-22T13:49:18.214Z,8.68
2023-05-22T13:51:45.766Z,13.05
2023-05-22T13:54:13.044Z,9.60
2023-05-22T13:56:40.222Z,12.63
2023-05-22T13:59:09.353Z,13.25
2023-05-22T14:01:36.889Z,11.05
2023-05-22T14:04:04.760Z,13.98
2023-05-22T14:06:31.932Z,10.55
2023-05-22T14:08:59.750Z,16.50
2023-05-22T14:11:27.953Z,14.95
2023-05-22T14:13:55.114Z,16.63
2023-05-22T14:16:22.885Z,18.35
2023-05-22T14:18:50.344Z,22.80
2023-05-22T14:21:19.034Z,18.20
2023-05-22T14:26:14.379Z,15.77
2023-05-22T14:28:42.126Z,16.25
2023-05-22T14:31:09.548Z,10.48
2023-05-22T14:33:36.821Z,12.73
2023-05-22T14:36:04.106Z,10.95
2023-05-22T14:38:35.037Z,11.80
2023-05-22T14:41:02.881Z,11.13
2023-05-22T14:43:30.192Z,14.98
2023-05-22T14:45:58.201Z,18.67
2023-05-22T14:48:26.676Z,14.07
2023-05-22T14:50:54.366Z,17.70
2023-05-22T14:53:22.562Z,10.93
2023-05-22T14:55:49.974Z,12.85
2023-05-22T14:58:17.152Z,12.98
2023-05-22T15:00:45.636Z,10.90
2023-05-22T15:03:13.571Z,11.52
2023-05-22T15:05:40.990Z,9.82
2023-05-22T15:08:08.333Z,13.30
2023-05-22T15:10:37.030Z,11.68
2023-05-22T15:13:04.146Z,13.00
2023-05-22T15:15:31.256Z,12.32
2023-05-22T15:18:06.764Z,13.63
2023-05-22T15:20:35.038Z,16.77
2023-05-22T15:23:03.598Z,15.85
2023-05-22T15:25:33.929Z,17.05
2023-05-22T15:28:06.433Z,17.25
2023-05-22T15:30:36.618Z,15.20
2023-05-22T15:33:03.935Z,12.98
2023-05-22T15:35:31.713Z,11.77
2023-05-22T15:37:59.195Z,12.60
2023-05-22T15:40:28.385Z,12.45
2023-05-22T15:42:55.756Z,17.27
2023-05-22T15:45:22.958Z,14.32
2023-05-22T15:47:50.381Z,16.73
2023-05-22T15:50:17.693Z,14.80
2023-05-22T15:52:44.923Z,17.38
2023-05-22T15:55:12.051Z,17.77
2023-05-22T15:57:40.217Z,15.20
2023-05-22T16:00:08.810Z,13.52
2023-05-22T16:02:36.503Z,13.50
2023-05-22T16:05:04.014Z,16.65
2023-05-22T16:07:32.351Z,21.23
2023-05-22T16:10:02.038Z,14.63
2023-05-22T16:12:29.318Z,19.35
2023-05-22T16:15:00.397Z,16.20
2023-05-22T16:17:33.004Z,16.50
2023-05-22T16:20:00.136Z,12.82
2023-05-22T16:22:40.191Z,18.95
2023-05-22T16:25:16.706Z,15.57
2023-05-22T16:27:46.254Z,17.05
2023-05-22T16:30:17.113Z,15.70
2023-05-22T16:32:48.325Z,14.93
2023-05-22T16:35:16.749Z,15.52
2023-05-22T16:37:43.954Z,16.15
2023-05-22T16:40:11.487Z,13.75
2023-05-22T16:42:38.803Z,16.80
2023-05-22T16:45:06.706Z,14.52
2023-05-22T16:47:36.351Z,20.80
2023-05-22T16:50:04.114Z,16.73
2023-05-22T16:52:34.680Z,16.73
2023-05-22T16:55:02.385Z,14.52
2023-05-22T16:57:32.635Z,16.02
2023-05-22T17:00:00.027Z,13.30
2023-05-22T17:02:27.279Z,16.75
2023-05-22T17:04:54.627Z,18.55
2023-05-22T17:07:21.671Z,17.70
2023-05-22T17:09:48.739Z,18.38
2023-05-22T17:12:15.860Z,17.58
2023-05-22T17:14:43.132Z,17.50
2023-05-22T17:17:10.286Z,15.57
2023-05-22T17:19:37.590Z,18.17
2023-05-22T17:22:10.502Z,15.30
2023-05-22T17:24:57.693Z,18.15
2023-05-22T17:27:35.581Z,17.23
2023-05-22T17:30:04.997Z,17.33
2023-05-22T17:32:34.945Z,17.52
2023-05-22T17:35:02.421Z,18.42
2023-05-22T17:37:31.417Z,15.88
2023-05-22T17:39:58.584Z,18.45
2023-05-22T17:42:25.849Z,17.17
2023-05-22T17:44:52.967Z,17.13
2023-05-22T17:47:20.175Z,24.02
2023-05-22T17:49:49.468Z,16.65
2023-05-22T17:52:16.517Z,18.58
2023-05-22T17:54:43.608Z,16.05
2023-05-22T17:57:11.224Z,16.98
2023-05-22T17:59:40.185Z,19.75
2023-05-22T18:02:09.589Z,17.02
2023-05-22T18:04:39.193Z,16.02
2023-05-22T18:07:08.967Z,15.18
2023-05-22T18:09:40.228Z,14.95
2023-05-22T18:15:12.724Z,26.05
2023-05-22T18:17:50.029Z,18.85
2023-05-22T18:20:17.245Z,14.60
2023-05-22T18:23:02.986Z,16.88
2023-05-22T18:30:18.697Z,15.45
2023-05-22T18:32:54.367Z,16.92
2023-05-22T18:35:24.136Z,21.50
2023-05-22T18:37:56.570Z,16.30
2023-05-22T18:40:28.289Z,15.98
2023-05-22T18:42:58.698Z,13.98
2023-05-22T18:45:49.751Z,19.65
2023-05-22T18:48:19.260Z,16.42
2023-05-22T18:50:46.526Z,17.30
2023-05-22T18:53:13.730Z,16.40
2023-05-22T18:56:02.021Z,19.38
2023-05-22T19:01:47.038Z,15.20
2023-05-22T19:04:18.320Z,23.33
2023-05-22T19:06:51.008Z,16.33
2023-05-22T19:09:20.427Z,15.00
2023-05-22T19:11:50.403Z,18.98
2023-05-22T19:14:22.926Z,17.75
2023-05-22T19:17:04.530Z,18.00
2023-05-22T19:19:36.943Z,16.80
2023-05-22T19:22:07.892Z,13.50
2023-05-22T19:24:37.536Z,18.77
2023-05-22T19:27:14.716Z,15.18
2023-05-22T19:29:41.969Z,15.40
2023-05-22T19:32:09.174Z,13.13
2023-05-22T19:34:36.326Z,12.23
2023-05-22T19:37:03.511Z,11.95
2023-05-22T19:39:33.546Z,20.30
2023-05-22T19:42:01.000Z,13.05
2023-05-22T19:44:28.301Z,15.57
2023-05-22T19:46:58.020Z,17.75
2023-05-22T19:49:26.005Z,19.63
2023-05-22T19:51:56.001Z,13.73
2023-05-22T19:54:24.499Z,60.72
2023-05-22T19:56:51.657Z,25.40
2023-05-22T19:59:18.717Z,19.83
2023-05-22T20:01:45.900Z,17.25
2023-05-22T20:04:13.099Z,14.98
2023-05-22T20:06:40.388Z,16.77
2023-05-22T20:09:09.130Z,19.17
2023-05-22T20:14:09.626Z,18.77
2023-05-22T20:16:36.848Z,14.30
2023-05-22T20:19:05.039Z,16.65
2023-05-22T20:21:32.409Z,15.88
2023-05-22T20:23:59.697Z,14.88
2023-05-22T20:26:26.862Z,12.18
2023-05-22T20:28:54.033Z,14.07
2023-05-22T20:31:21.121Z,14.70
2023-05-22T20:33:48.387Z,14.23
2023-05-22T20:36:17.034Z,14.30
2023-05-22T20:38:44.128Z,15.60
2023-05-22T20:41:13.014Z,15.77
2023-05-22T20:43:43.501Z,19.55
2023-05-22T20:46:10.890Z,12.85
2023-05-22T20:48:38.590Z,13.50
2023-05-22T20:51:06.032Z,14.00
2023-05-22T20:53:33.573Z,12.60
2023-05-22T20:56:00.658Z,16.17
2023-05-22T20:58:30.615Z,11.70
2023-05-22T21:00:57.881Z,12.95
2023-05-22T21:03:25.938Z,15.38
2023-05-22T21:05:53.494Z,13.25
2023-05-22T21:08:21.649Z,16.45
2023-05-22T21:10:48.725Z,13.50
2023-05-22T21:13:16.008Z,13.82
2023-05-22T21:15:43.164Z,12.98
2023-05-22T21:18:10.433Z,17.88
2023-05-22T21:20:37.805Z,13.95
2023-05-22T21:23:05.107Z,20.70
2023-05-22T21:25:32.367Z,14.75
2023-05-22T21:27:59.819Z,15.98
2023-05-22T21:30:29.873Z,16.70
2023-05-22T21:32:56.989Z,18.60
2023-05-22T21:35:24.150Z,14.50
2023-05-22T21:37:51.232Z,16.35
2023-05-22T21:40:18.561Z,14.38
2023-05-22T21:42:47.658Z,16.77
2023-05-22T21:45:15.063Z,13.20
2023-05-22T21:47:42.375Z,15.60
2023-05-22T21:50:10.473Z,12.93
2023-05-22T21:52:37.640Z,16.13
2023-05-22T21:55:05.248Z,13.10
2023-05-22T21:57:32.413Z,16.15
2023-05-22T21:59:59.505Z,13.02
2023-05-22T22:02:26.595Z,15.02
2023-05-22T22:04:53.760Z,19.98
2023-05-22T22:07:21.055Z,21.25
2023-05-22T22:09:48.504Z,12.93
2023-05-22T22:12:15.609Z,13.02
2023-05-22T22:14:42.680Z,14.02
2023-05-22T22:17:09.737Z,12.98
2023-05-22T22:19:36.901Z,13.65
2023-05-22T22:22:04.195Z,14.25
2023-05-22T22:24:31.423Z,13.85
2023-05-22T22:26:58.523Z,12.82
2023-05-22T22:29:26.255Z,18.40
2023-05-22T22:31:53.475Z,16.05
2023-05-22T22:34:20.984Z,18.23
2023-05-22T22:36:48.090Z,14.15
2023-05-22T22:39:15.169Z,20.23
2023-05-22T22:41:43.577Z,16.23
2023-05-22T22:44:11.012Z,13.18
2023-05-22T22:46:38.304Z,14.43
2023-05-22T22:49:05.577Z,13.95
2023-05-22T22:51:32.783Z,16.95
2023-05-22T22:53:59.925Z,17.15
2023-05-22T22:56:29.980Z,14.88
2023-05-22T22:58:57.407Z,14.27
2023-05-22T23:01:24.856Z,18.60
2023-05-22T23:03:52.236Z,14.63
2023-05-22T23:06:19.666Z,13.48
2023-05-22T23:08:46.792Z,16.65
2023-05-22T23:11:13.908Z,19.13
2023-05-22T23:13:43.247Z,17.05
2023-05-22T23:16:10.476Z,17.10
2023-05-22T23:18:37.939Z,16.95
2023-05-22T23:21:05.220Z,18.77
2023-05-22T23:23:32.638Z,19.75
2023-05-22T23:25:59.708Z,16.58
2023-05-22T23:28:26.839Z,14.15
2023-05-22T23:30:53.981Z,19.40
2023-05-22T23:33:21.429Z,16.45
2023-05-22T23:35:48.638Z,19.15
2023-05-22T23:38:15.786Z,15.95
2023-05-22T23:40:42.862Z,15.02
2023-05-22T23:43:09.909Z,16.23
2023-05-22T23:45:36.960Z,15.50
2023-05-22T23:48:04.344Z,22.15
2023-05-22T23:50:31.557Z,14.43
2023-05-22T23:52:58.718Z,21.45
2023-05-22T23:55:25.875Z,19.67
2023-05-22T23:57:52.958Z,18.73
